Time;durP1;ratioP1;P1;durP2;ratioP2;P2;SDS_P1;SDS_P2;PMS_P1;PMS_P2;Temp;Humidity;BMP_temperature;BMP_pressure;BME280_temperature;BME280_humidity;BME280_pressure;Samples;Min_cycle;Max_cycle;Signal;HPM_P1;HPM_P2
2023/06/16 07:28:30;;;;;;;;;19.50;18.00;;;;;;;;5061395;28;13430;-72
2023/06/16 07:30:55;;;;;;;;;18.75;18.25;;;;;;;;5064771;28;11033;-69
2023/06/16 07:33:21;;;;;;;;;20.50;17.50;;;;;;;;5063507;28;8826;-69
2023/06/16 07:35:47;;;;;;;;;19.00;18.00;;;;;;;;5064989;28;8801;-73
2023/06/16 07:38:12;;;;;;;;;20.75;18.50;;;;;;;;5064334;28;8861;-70
2023/06/16 07:40:38;;;;;;;;;16.25;16.25;;;;;;;;5066203;28;11464;-67
2023/06/16 07:43:03;;;;;;;;;18.00;18.00;;;;;;;;5066168;28;8830;-69
2023/06/16 07:45:31;;;;;;;;;16.33;16.33;;;;;;;;5071304;28;8833;-68
2023/06/16 07:47:57;;;;;;;;;19.33;17.33;;;;;;;;5086595;28;8810;-68
2023/06/16 07:50:23;;;;;;;;;14.33;14.00;;;;;;;;5062165;28;8981;-68
2023/06/16 07:52:48;;;;;;;;;16.00;16.00;;;;;;;;5064636;28;11521;-68
2023/06/16 07:55:14;;;;;;;;;20.67;19.33;;;;;;;;5064864;28;8809;-71
2023/06/16 07:57:40;;;;;;;;;15.00;15.00;;;;;;;;5064489;28;9594;-73
2023/06/16 08:00:11;;;;;;;;;38.00;33.00;;;;;;;;5064835;28;8953;-71
2023/06/16 08:02:36;;;;;;;;;30.67;29.00;;;;;;;;5064685;28;8789;-71
2023/06/16 08:05:02;;;;;;;;;29.00;25.67;;;;;;;;5074046;28;9333;-71
2023/06/16 08:07:27;;;;;;;;;24.67;22.00;;;;;;;;5077227;28;8810;-71
2023/06/16 08:09:52;;;;;;;;;21.67;21.00;;;;;;;;5086024;28;8810;-76
2023/06/16 08:12:18;;;;;;;;;20.33;18.00;;;;;;;;5072842;28;8839;-75
2023/06/16 08:14:43;;;;;;;;;17.00;15.67;;;;;;;;5068683;28;8786;-72
2023/06/16 08:17:08;;;;;;;;;17.00;16.00;;;;;;;;5076235;28;8831;-73
2023/06/16 08:19:34;;;;;;;;;20.00;19.67;;;;;;;;5073791;28;8803;-73
2023/06/16 08:21:59;;;;;;;;;13.00;13.00;;;;;;;;5075595;28;8779;-72
2023/06/16 08:24:24;;;;;;;;;17.67;14.67;;;;;;;;5074374;28;8944;-73
2023/06/16 08:26:50;;;;;;;;;13.33;13.33;;;;;;;;5074305;28;8865;-73
2023/06/16 08:29:15;;;;;;;;;15.33;13.00;;;;;;;;5076583;28;9525;-72
2023/06/16 08:31:40;;;;;;;;;14.33;13.67;;;;;;;;5075740;28;8932;-73
2023/06/16 08:34:07;;;;;;;;;13.00;13.00;;;;;;;;5075534;28;8818;-74
2023/06/16 08:36:33;;;;;;;;;14.25;14.25;;;;;;;;5072057;28;8820;-74
2023/06/16 08:38:58;;;;;;;;;12.67;12.67;;;;;;;;5067307;28;8802;-71
2023/06/16 08:41:27;;;;;;;;;14.00;13.00;;;;;;;;5061361;28;8817;-78
2023/06/16 08:44:16;;;;;;;;;14.75;14.75;;;;;;;;5067910;28;8821;-72
2023/06/16 08:46:38;;;;;;;;;15.00;13.75;;;;;;;;5071245;28;9020;-72
2023/06/16 08:49:14;;;;;;;;;14.67;14.00;;;;;;;;5063756;28;8892;-72
2023/06/16 08:51:43;;;;;;;;;15.25;13.75;;;;;;;;5051470;28;8821;-76
2023/06/16 08:54:10;;;;;;;;;12.00;12.00;;;;;;;;5051434;28;8805;-74
2023/06/16 08:56:36;;;;;;;;;14.00;14.00;;;;;;;;5052143;28;8955;-74
2023/06/16 08:59:03;;;;;;;;;11.67;11.33;;;;;;;;5051911;28;8804;-73
2023/06/16 09:01:29;;;;;;;;;11.75;11.75;;;;;;;;5051885;28;8779;-75
2023/06/16 09:03:55;;;;;;;;;11.75;10.75;;;;;;;;5071286;28;8813;-76
2023/06/16 09:06:21;;;;;;;;;9.50;9.50;;;;;;;;5072197;28;8790;-73
2023/06/16 09:08:46;;;;;;;;;10.00;10.00;;;;;;;;5070804;28;8802;-76
2023/06/16 09:11:11;;;;;;;;;13.33;11.67;;;;;;;;5070242;28;8911;-74
2023/06/16 09:13:43;;;;;;;;;11.00;11.00;;;;;;;;5071056;28;9549;-71
2023/06/16 09:16:09;;;;;;;;;10.50;10.00;;;;;;;;5069264;28;8925;-73
2023/06/16 09:18:40;;;;;;;;;13.00;13.00;;;;;;;;5049029;28;8817;-72
2023/06/16 09:21:06;;;;;;;;;9.50;9.50;;;;;;;;5051466;28;8808;-71
2023/06/16 09:23:31;;;;;;;;;9.00;7.67;;;;;;;;5051158;28;8813;-72
2023/06/16 09:25:57;;;;;;;;;10.33;10.00;;;;;;;;5050171;28;8829;-75
2023/06/16 09:28:34;;;;;;;;;10.00;8.50;;;;;;;;5049693;28;8849;-73
2023/06/16 09:31:03;;;;;;;;;10.00;9.50;;;;;;;;5049728;28;8844;-76
2023/06/16 09:33:29;;;;;;;;;9.50;8.25;;;;;;;;5051031;28;8835;-75
2023/06/16 09:35:55;;;;;;;;;8.67;8.67;;;;;;;;5051407;28;8785;-78
2023/06/16 09:38:20;;;;;;;;;8.00;8.00;;;;;;;;5048210;28;8833;-76
2023/06/16 09:40:45;;;;;;;;;8.67;7.67;;;;;;;;5040625;28;8831;-78
2023/06/16 09:43:13;;;;;;;;;5.33;5.33;;;;;;;;5029632;28;9678;-77
2023/06/16 09:45:38;;;;;;;;;9.25;8.50;;;;;;;;5030862;28;8847;-77
2023/06/16 09:48:05;;;;;;;;;7.33;7.33;;;;;;;;5043103;28;9783;-75
2023/06/16 09:50:30;;;;;;;;;8.50;7.75;;;;;;;;5049761;28;8847;-70
2023/06/16 09:52:57;;;;;;;;;8.67;8.67;;;;;;;;5049454;28;8820;-70
2023/06/16 09:55:26;;;;;;;;;7.50;7.50;;;;;;;;5030859;28;9140;-74
2023/06/16 09:57:51;;;;;;;;;9.25;9.25;;;;;;;;5055585;28;8869;-71
2023/06/16 10:00:17;;;;;;;;;8.33;8.33;;;;;;;;5069143;28;8795;-71
2023/06/16 10:02:46;;;;;;;;;8.00;8.00;;;;;;;;5070597;28;8806;-72
2023/06/16 10:05:16;;;;;;;;;8.75;8.50;;;;;;;;5070579;28;8787;-72
2023/06/16 10:07:51;;;;;;;;;8.75;7.50;;;;;;;;5055981;28;9006;-73
2023/06/16 10:10:19;;;;;;;;;7.75;7.00;;;;;;;;5049220;28;8923;-72
2023/06/16 10:12:48;;;;;;;;;8.75;7.00;;;;;;;;5050385;28;8777;-73
2023/06/16 10:15:20;;;;;;;;;10.00;8.25;;;;;;;;5050561;28;8871;-72
2023/06/16 10:17:46;;;;;;;;;8.75;8.75;;;;;;;;5059885;28;8810;-73
2023/06/16 10:20:13;;;;;;;;;9.25;8.75;;;;;;;;5052592;28;8856;-73
2023/06/16 10:22:39;;;;;;;;;9.00;8.75;;;;;;;;5050394;28;8797;-70
2023/06/16 10:25:04;;;;;;;;;6.00;6.00;;;;;;;;5049978;28;8914;-70
2023/06/16 10:27:30;;;;;;;;;8.00;8.00;;;;;;;;5048753;28;8844;-72
2023/06/16 10:29:56;;;;;;;;;6.00;5.00;;;;;;;;5050252;28;8812;-70
2023/06/16 10:32:21;;;;;;;;;7.00;7.00;;;;;;;;5050034;28;8828;-71
2023/06/16 10:34:51;;;;;;;;;8.33;7.33;;;;;;;;5050122;28;8806;-71
2023/06/16 10:37:18;;;;;;;;;6.50;6.50;;;;;;;;5048525;28;8891;-71
2023/06/16 10:39:45;;;;;;;;;7.25;7.25;;;;;;;;5047700;28;8985;-71
2023/06/16 10:42:14;;;;;;;;;10.50;10.50;;;;;;;;5039249;28;9000;-70
2023/06/16 10:44:40;;;;;;;;;7.25;7.25;;;;;;;;5028788;28;8819;-70
2023/06/16 10:47:05;;;;;;;;;9.00;9.00;;;;;;;;5036051;28;8838;-71
2023/06/16 10:49:31;;;;;;;;;7.00;7.00;;;;;;;;5049913;28;8887;-71
2023/06/16 10:51:58;;;;;;;;;8.67;8.00;;;;;;;;5050027;28;8927;-70
2023/06/16 10:54:32;;;;;;;;;8.75;8.25;;;;;;;;5049493;28;8793;-72
2023/06/16 10:57:01;;;;;;;;;7.25;7.25;;;;;;;;5048458;28;8837;-71
2023/06/16 10:59:27;;;;;;;;;9.25;8.75;;;;;;;;5050040;28;8801;-70
2023/06/16 11:01:55;;;;;;;;;8.00;8.00;;;;;;;;5048854;28;8859;-71
2023/06/16 11:04:21;;;;;;;;;7.75;7.25;;;;;;;;5048396;28;8777;-69
2023/06/16 11:07:04;;;;;;;;;11.00;9.33;;;;;;;;5048505;28;8797;-68
2023/06/16 11:09:30;;;;;;;;;7.25;7.25;;;;;;;;5049880;28;8773;-68
2023/06/16 11:12:02;;;;;;;;;8.00;8.00;;;;;;;;5049652;28;8839;-68
2023/06/16 11:14:27;;;;;;;;;7.00;6.25;;;;;;;;5049335;28;8847;-68
2023/06/16 11:16:53;;;;;;;;;8.00;8.00;;;;;;;;5049585;28;8832;-69
2023/06/16 11:19:18;;;;;;;;;8.00;8.00;;;;;;;;5048765;28;8988;-68
2023/06/16 11:21:44;;;;;;;;;9.00;8.00;;;;;;;;5047935;28;8795;-69
2023/06/16 11:24:10;;;;;;;;;8.67;8.00;;;;;;;;5046070;28;8826;-69
2023/06/16 11:26:36;;;;;;;;;10.00;8.00;;;;;;;;5049397;28;8826;-69
2023/06/16 11:29:04;;;;;;;;;7.33;7.33;;;;;;;;5046379;28;8838;-70
2023/06/16 11:31:30;;;;;;;;;8.00;8.00;;;;;;;;5048407;28;8783;-69
2023/06/16 11:33:56;;;;;;;;;7.50;7.50;;;;;;;;5048401;28;8942;-69
2023/06/16 11:36:22;;;;;;;;;7.67;7.67;;;;;;;;5048426;28;9652;-69
2023/06/16 11:38:53;;;;;;;;;8.25;8.25;;;;;;;;5048500;28;8791;-69
2023/06/16 11:41:19;;;;;;;;;8.00;8.00;;;;;;;;5048580;28;8831;-68
2023/06/16 11:43:45;;;;;;;;;10.00;8.75;;;;;;;;5049350;28;8894;-69
2023/06/16 11:46:11;;;;;;;;;10.00;9.25;;;;;;;;5049590;28;8767;-68
2023/06/16 11:48:37;;;;;;;;;7.00;6.00;;;;;;;;5034983;22;8905;-71
2023/06/16 11:51:04;;;;;;;;;8.75;8.75;;;;;;;;5010267;28;11517;-70
2023/06/16 11:53:30;;;;;;;;;8.50;8.50;;;;;;;;5010602;28;8853;-71
2023/06/16 11:55:59;;;;;;;;;9.25;8.00;;;;;;;;4993047;28;8806;-72
2023/06/16 11:58:27;;;;;;;;;8.25;7.00;;;;;;;;5010545;28;8819;-72
2023/06/16 12:00:56;;;;;;;;;5.75;3.50;;;;;;;;5010915;28;8814;-71
2023/06/16 12:03:24;;;;;;;;;8.25;7.25;;;;;;;;5010543;28;8783;-71
2023/06/16 12:05:53;;;;;;;;;11.00;11.00;;;;;;;;5010529;28;8837;-71
2023/06/16 12:08:33;;;;;;;;;7.00;7.00;;;;;;;;5010018;28;8896;-71
2023/06/16 12:10:59;;;;;;;;;10.00;10.00;;;;;;;;5010475;28;8818;-72
2023/06/16 12:13:24;;;;;;;;;10.00;9.67;;;;;;;;5011065;28;8810;-71
2023/06/16 12:15:50;;;;;;;;;11.33;10.67;;;;;;;;5014170;28;8794;-70
2023/06/16 12:18:15;;;;;;;;;10.67;10.67;;;;;;;;5015860;28;8834;-70
2023/06/16 12:20:40;;;;;;;;;12.00;12.00;;;;;;;;5033836;28;8789;-71
2023/06/16 12:23:10;;;;;;;;;8.00;8.00;;;;;;;;5033506;28;8788;-71
2023/06/16 12:25:35;;;;;;;;;9.00;9.00;;;;;;;;5033526;28;8780;-70
2023/06/16 12:28:03;;;;;;;;;8.00;8.00;;;;;;;;5033648;28;8828;-71
2023/06/16 12:30:32;;;;;;;;;5.00;5.00;;;;;;;;5016020;28;8812;-71
2023/06/16 12:32:58;;;;;;;;;6.75;6.75;;;;;;;;5033697;28;8797;-71
2023/06/16 12:35:26;;;;;;;;;6.33;6.33;;;;;;;;5033707;28;8799;-71
2023/06/16 12:37:56;;;;;;;;;9.00;7.50;;;;;;;;5033508;28;8935;-72
2023/06/16 12:40:28;;;;;;;;;7.00;7.00;;;;;;;;5033244;28;8978;-71
2023/06/16 12:42:53;;;;;;;;;6.00;6.00;;;;;;;;5033390;28;8820;-71
2023/06/16 12:45:18;;;;;;;;;7.00;6.00;;;;;;;;5033597;28;8881;-70
2023/06/16 12:47:44;;;;;;;;;4.00;4.00;;;;;;;;5055370;23;8878;-67
2023/06/16 12:50:09;;;;;;;;;8.00;7.00;;;;;;;;5052221;28;8798;-67
2023/06/16 12:52:35;;;;;;;;;6.00;5.00;;;;;;;;5052291;28;8875;-69
2023/06/16 12:55:00;;;;;;;;;6.33;6.33;;;;;;;;5052086;28;8793;-68
2023/06/16 12:57:26;;;;;;;;;8.00;7.00;;;;;;;;5052025;28;8836;-68
2023/06/16 12:59:52;;;;;;;;;8.67;7.00;;;;;;;;5052107;28;8861;-68
2023/06/16 13:02:18;;;;;;;;;6.33;6.00;;;;;;;;5052151;28;8895;-68
2023/06/16 13:04:43;;;;;;;;;8.67;7.00;;;;;;;;5052098;28;8791;-68
2023/06/16 13:07:08;;;;;;;;;6.00;5.67;;;;;;;;5052006;28;11024;-68
2023/06/16 13:09:34;;;;;;;;;6.00;6.00;;;;;;;;5051720;28;8778;-68
2023/06/16 13:12:01;;;;;;;;;7.33;6.67;;;;;;;;5051991;28;8888;-68
2023/06/16 13:14:27;;;;;;;;;5.00;4.00;;;;;;;;5051544;28;8929;-68
2023/06/16 13:16:52;;;;;;;;;8.50;8.00;;;;;;;;5051671;28;9007;-68
2023/06/16 13:19:17;;;;;;;;;8.00;6.67;;;;;;;;5051801;28;8815;-68
2023/06/16 13:21:43;;;;;;;;;6.67;6.67;;;;;;;;5051813;28;8830;-68
2023/06/16 13:24:09;;;;;;;;;8.00;7.00;;;;;;;;5051411;28;8890;-68
2023/06/16 13:26:34;;;;;;;;;7.33;7.00;;;;;;;;5051984;28;8916;-68
2023/06/16 13:29:00;;;;;;;;;7.00;7.00;;;;;;;;5051633;28;8802;-69
2023/06/16 13:31:25;;;;;;;;;8.00;6.00;;;;;;;;5051650;28;8837;-69
2023/06/16 13:33:50;;;;;;;;;8.00;7.00;;;;;;;;5051001;28;8798;-67
2023/06/16 13:36:21;;;;;;;;;8.00;7.00;;;;;;;;5051316;28;8799;-67
2023/06/16 13:38:47;;;;;;;;;7.50;6.25;;;;;;;;5033241;28;8818;-67
2023/06/16 13:41:13;;;;;;;;;7.00;7.00;;;;;;;;5051422;28;8805;-69
2023/06/16 13:43:42;;;;;;;;;7.00;7.00;;;;;;;;5051350;28;8794;-68
2023/06/16 13:46:07;;;;;;;;;7.00;7.00;;;;;;;;5051278;28;8806;-69
2023/06/16 13:48:33;;;;;;;;;6.00;6.00;;;;;;;;5051642;28;8868;-69
2023/06/16 13:50:58;;;;;;;;;6.67;6.67;;;;;;;;5050851;28;8802;-69
2023/06/16 13:53:24;;;;;;;;;9.67;8.00;;;;;;;;5032998;28;8822;-69
2023/06/16 13:55:49;;;;;;;;;8.00;8.00;;;;;;;;5051136;28;8790;-69
2023/06/16 13:58:15;;;;;;;;;8.00;8.00;;;;;;;;5051082;28;8842;-69
2023/06/16 14:00:40;;;;;;;;;6.67;6.67;;;;;;;;5051304;28;8794;-69
2023/06/16 14:03:05;;;;;;;;;11.00;11.00;;;;;;;;5051033;28;8809;-69
2023/06/16 14:05:31;;;;;;;;;9.67;9.67;;;;;;;;5050928;28;8845;-69
2023/06/16 14:07:56;;;;;;;;;10.00;9.00;;;;;;;;5050846;28;8842;-69
2023/06/16 14:10:21;;;;;;;;;9.00;9.00;;;;;;;;5050235;28;8813;-69
2023/06/16 14:12:47;;;;;;;;;11.00;9.67;;;;;;;;5050751;28;8923;-70
2023/06/16 14:15:16;;;;;;;;;10.33;10.33;;;;;;;;5050850;28;8820;-69
2023/06/16 14:17:41;;;;;;;;;11.75;11.25;;;;;;;;5050623;28;8927;-69
2023/06/16 14:20:08;;;;;;;;;10.33;9.00;;;;;;;;5050538;28;8807;-69
2023/06/16 14:22:36;;;;;;;;;11.00;9.75;;;;;;;;5050663;28;9543;-69
2023/06/16 14:25:02;;;;;;;;;12.75;12.75;;;;;;;;5050703;28;8790;-69
2023/06/16 14:27:27;;;;;;;;;15.00;13.00;;;;;;;;5050083;28;8826;-69
2023/06/16 14:29:53;;;;;;;;;14.33;13.33;;;;;;;;5032656;28;8833;-69
2023/06/16 14:32:18;;;;;;;;;10.67;10.00;;;;;;;;5050484;28;8912;-69
2023/06/16 14:34:43;;;;;;;;;14.33;11.33;;;;;;;;5050340;28;9502;-69
2023/06/16 14:37:09;;;;;;;;;11.00;11.00;;;;;;;;5049557;28;9658;-68
2023/06/16 14:39:34;;;;;;;;;11.67;11.00;;;;;;;;5050188;28;8799;-68
2023/06/16 14:41:59;;;;;;;;;13.00;12.00;;;;;;;;5032266;28;8831;-68
2023/06/16 14:44:25;;;;;;;;;15.33;13.33;;;;;;;;5050142;28;8787;-69
2023/06/16 14:46:50;;;;;;;;;10.67;10.67;;;;;;;;5049723;28;8810;-69
2023/06/16 14:49:15;;;;;;;;;14.00;13.00;;;;;;;;5050405;28;8814;-69
2023/06/16 14:51:42;;;;;;;;;14.00;13.33;;;;;;;;5050083;28;8795;-69
2023/06/16 14:54:08;;;;;;;;;13.00;13.00;;;;;;;;5050152;28;8786;-69
2023/06/16 14:56:33;;;;;;;;;13.00;11.00;;;;;;;;5049940;28;8803;-69
2023/06/16 14:58:58;;;;;;;;;12.33;12.33;;;;;;;;5050164;28;8815;-69
2023/06/16 15:01:24;;;;;;;;;14.67;13.67;;;;;;;;5050019;28;9514;-68
2023/06/16 15:03:49;;;;;;;;;13.67;12.67;;;;;;;;5049710;28;8813;-74
2023/06/16 15:06:15;;;;;;;;;17.33;15.00;;;;;;;;5049268;28;8888;-72
2023/06/16 15:08:41;;;;;;;;;13.00;13.00;;;;;;;;5049983;28;8930;-68
2023/06/16 15:11:07;;;;;;;;;11.00;11.00;;;;;;;;5046469;28;8831;-72
2023/06/16 15:13:32;;;;;;;;;13.67;13.33;;;;;;;;5027248;28;8856;-72
2023/06/16 15:15:58;;;;;;;;;11.67;11.67;;;;;;;;5038812;28;8853;-72
2023/06/16 15:18:23;;;;;;;;;14.00;12.00;;;;;;;;5032626;28;8838;-72
2023/06/16 15:20:49;;;;;;;;;12.67;12.67;;;;;;;;5040499;28;8932;-72
2023/06/16 15:23:14;;;;;;;;;12.00;11.67;;;;;;;;5032893;28;8802;-72
2023/06/16 15:25:40;;;;;;;;;8.00;8.00;;;;;;;;5029188;28;8855;-70
2023/06/16 15:28:08;;;;;;;;;10.33;10.00;;;;;;;;5029847;28;8944;-70
2023/06/16 15:30:37;;;;;;;;;10.50;10.00;;;;;;;;5032796;28;8853;-69
2023/06/16 15:33:08;;;;;;;;;11.00;11.00;;;;;;;;5040266;28;8941;-70
2023/06/16 15:35:34;;;;;;;;;11.75;10.25;;;;;;;;5040041;28;8831;-69
2023/06/16 15:37:59;;;;;;;;;12.67;10.00;;;;;;;;5039510;28;8859;-69
2023/06/16 15:40:25;;;;;;;;;10.33;9.33;;;;;;;;5019610;28;8818;-68
2023/06/16 15:42:58;;;;;;;;;11.00;9.33;;;;;;;;5036921;28;8814;-69
2023/06/16 15:45:24;;;;;;;;;10.50;10.00;;;;;;;;5025548;28;8811;-69
2023/06/16 15:47:49;;;;;;;;;11.00;9.00;;;;;;;;5041710;28;8869;-69
2023/06/16 15:50:18;;;;;;;;;12.00;12.00;;;;;;;;5052981;28;8814;-71
2023/06/16 15:52:43;;;;;;;;;10.25;9.25;;;;;;;;5053356;28;8822;-70
2023/06/16 15:55:08;;;;;;;;;9.67;9.67;;;;;;;;5053128;28;8840;-69
2023/06/16 16:00:20;;;;;;;;;9.00;9.00;;;;;;;;5051180;28;8842;-72
2023/06/16 16:02:45;;;;;;;;;11.00;8.33;;;;;;;;5052983;28;8837;-75
2023/06/16 16:05:11;;;;;;;;;10.00;10.00;;;;;;;;5046447;28;9825;-74
2023/06/16 16:07:36;;;;;;;;;7.00;7.00;;;;;;;;5046936;28;8813;-74
2023/06/16 16:10:02;;;;;;;;;7.33;7.33;;;;;;;;5042786;28;8791;-76
2023/06/16 16:12:28;;;;;;;;;9.00;8.00;;;;;;;;5042889;28;8849;-75
2023/06/16 21:27:33;;;;;;;;;12.00;12.00;;;;;;;;5104165;27;13428;-74
2023/06/16 21:29:58;;;;;;;;;16.50;15.00;;;;;;;;5107327;28;10108;-77
2023/06/16 21:32:24;;;;;;;;;18.00;15.50;;;;;;;;5107735;28;8799;-74
2023/06/16 21:34:49;;;;;;;;;19.50;16.75;;;;;;;;5107439;28;8816;-72
2023/06/16 21:37:15;;;;;;;;;19.75;17.25;;;;;;;;5105881;28;8926;-72
2023/06/16 21:40:05;;;;;;;;;17.75;17.50;;;;;;;;5106429;28;8823;-72
2023/06/16 21:42:28;;;;;;;;;18.50;17.00;;;;;;;;5106881;28;9035;-73
2023/06/16 21:47:15;;;;;;;;;23.50;22.25;;;;;;;;5104041;27;13469;-73
2023/06/16 21:49:40;;;;;;;;;23.50;21.75;;;;;;;;5107392;28;9900;-76
2023/06/16 21:52:06;;;;;;;;;22.25;18.00;;;;;;;;5107382;28;8812;-75
2023/06/16 21:54:31;;;;;;;;;18.25;17.25;;;;;;;;5106788;28;9547;-76
2023/06/16 21:56:57;;;;;;;;;18.67;17.33;;;;;;;;5106325;28;8820;-76
2023/06/16 21:59:22;;;;;;;;;19.67;15.00;;;;;;;;5104908;28;8788;-73
2023/06/16 22:01:48;;;;;;;;;19.00;16.33;;;;;;;;5105339;28;10067;-76
2023/06/16 22:04:13;;;;;;;;;14.00;13.00;;;;;;;;5105215;28;8838;-74
2023/06/16 22:06:41;;;;;;;;;14.33;13.33;;;;;;;;5118136;27;8813;-72
2023/06/16 22:09:07;;;;;;;;;16.33;15.67;;;;;;;;5122173;27;9714;-72
2023/06/16 22:11:32;;;;;;;;;18.25;16.00;;;;;;;;5125660;27;9449;-74
2023/06/16 22:13:58;;;;;;;;;19.67;16.00;;;;;;;;5127103;27;9421;-72
2023/06/16 22:16:23;;;;;;;;;17.67;15.33;;;;;;;;5126924;27;8914;-71
2023/06/16 22:18:50;;;;;;;;;16.67;14.00;;;;;;;;5121022;28;8864;-72
2023/06/16 22:21:15;;;;;;;;;16.33;14.67;;;;;;;;5106842;28;8780;-72
2023/06/16 22:23:40;;;;;;;;;14.00;14.00;;;;;;;;5105308;28;9457;-75
2023/06/16 22:26:06;;;;;;;;;16.67;16.33;;;;;;;;5104942;28;8865;-73
2023/06/16 22:28:32;;;;;;;;;15.00;14.75;;;;;;;;5106637;28;8791;-73
2023/06/16 22:30:59;;;;;;;;;14.67;13.00;;;;;;;;5106563;28;8795;-73
2023/06/16 22:33:24;;;;;;;;;15.67;14.33;;;;;;;;5106415;28;9251;-73
2023/06/16 22:35:50;;;;;;;;;16.50;14.75;;;;;;;;5106267;28;9432;-73
2023/06/16 22:38:15;;;;;;;;;13.33;13.33;;;;;;;;5105240;28;8897;-73
2023/06/16 22:40:40;;;;;;;;;13.67;13.00;;;;;;;;5106134;28;8776;-72
2023/06/16 22:43:06;;;;;;;;;14.50;14.25;;;;;;;;5106461;28;8861;-72
2023/06/16 22:45:31;;;;;;;;;14.00;13.25;;;;;;;;5104764;28;8966;-71
2023/06/16 22:47:57;;;;;;;;;13.75;13.75;;;;;;;;5106267;28;9638;-71
2023/06/16 22:50:22;;;;;;;;;15.25;15.25;;;;;;;;5106045;28;8834;-71
2023/06/16 22:52:48;;;;;;;;;15.00;13.67;;;;;;;;5106060;28;8880;-71
2023/06/16 22:55:13;;;;;;;;;14.75;13.50;;;;;;;;5105866;28;8819;-70
2023/06/16 22:57:38;;;;;;;;;12.00;12.00;;;;;;;;5098019;28;8887;-71
2023/06/16 23:00:06;;;;;;;;;17.25;17.25;;;;;;;;5092383;28;8788;-71
2023/06/16 23:02:31;;;;;;;;;43.00;37.00;;;;;;;;5092703;28;8795;-71
2023/06/16 23:04:57;;;;;;;;;24.25;21.50;;;;;;;;5090851;28;11127;-72
2023/06/16 23:07:22;;;;;;;;;13.00;13.00;;;;;;;;5090540;28;8796;-71
2023/06/16 23:09:47;;;;;;;;;17.50;15.00;;;;;;;;5091936;28;8780;-72
2023/06/16 23:12:22;;;;;;;;;;;;;;;;;;;;;
